createdAt,value
2018-04-24T00:04:14.616Z,11.03
2018-04-24T00:10:19.011Z,9.90
2018-04-24T00:16:23.360Z,11.63
2018-04-24T00:22:27.717Z,11.40
2018-04-24T00:28:32.078Z,11.47
2018-04-24T00:34:36.428Z,12.33
2018-04-24T00:40:40.765Z,10.80
2018-04-24T00:46:45.128Z,10.63
2018-04-24T00:52:50.239Z,12.30
2018-04-24T00:58:54.581Z,10.30
2018-04-24T01:04:58.921Z,12.13
2018-04-24T01:11:03.273Z,11.40
2018-04-24T01:17:07.626Z,10.70
2018-04-24T01:23:11.996Z,12.07
2018-04-24T01:29:17.101Z,10.83
2018-04-24T01:35:21.441Z,11.03
2018-04-24T01:41:25.832Z,13.40
2018-04-24T01:47:30.954Z,12.70
2018-04-24T01:53:35.317Z,13.13
2018-04-24T01:59:39.664Z,15.33
2018-04-24T02:05:44.017Z,16.30
2018-04-24T02:11:49.121Z,17.63
2018-04-24T02:17:53.462Z,16.53
2018-04-24T02:23:57.843Z,19.40
2018-04-24T02:30:02.968Z,18.77
2018-04-24T02:36:08.417Z,19.53
2018-04-24T02:42:12.762Z,18.67
2018-04-24T02:48:17.117Z,17.20
2018-04-24T02:54:21.454Z,21.10
2018-04-24T03:00:25.792Z,19.77
2018-04-24T03:06:30.171Z,20.03
2018-04-24T03:12:34.522Z,21.40
2018-04-24T03:18:38.838Z,23.63
2018-04-24T03:24:43.176Z,20.10
2018-04-24T03:30:47.537Z,21.93
2018-04-24T03:36:51.874Z,20.20
2018-04-24T03:42:56.233Z,20.50
2018-04-24T03:49:01.348Z,19.23
2018-04-24T03:55:05.693Z,20.53
2018-04-24T04:01:10.035Z,21.17
2018-04-24T04:07:14.388Z,21.50
2018-04-24T04:13:18.734Z,23.10
2018-04-24T04:19:41.480Z,22.90
2018-04-24T04:25:45.828Z,20.43
2018-04-24T04:31:50.178Z,19.20
2018-04-24T04:37:54.519Z,18.50
2018-04-24T04:44:00.475Z,19.20
2018-04-24T04:50:04.862Z,21.57
2018-04-24T04:56:09.991Z,22.80
2018-04-24T05:02:14.320Z,20.50
2018-04-24T05:08:18.657Z,22.83
2018-04-24T05:14:23.767Z,22.90
2018-04-24T05:20:28.879Z,22.30
2018-04-24T05:26:33.228Z,23.50
2018-04-24T05:32:37.591Z,20.50
2018-04-24T05:38:41.963Z,19.10
2018-04-24T05:44:47.080Z,18.70
2018-04-24T05:50:52.212Z,18.23
2018-04-24T05:56:56.568Z,16.97
2018-04-24T06:03:00.927Z,16.00
2018-04-24T06:09:06.118Z,16.53
2018-04-24T06:15:11.286Z,13.20
2018-04-24T06:21:15.621Z,15.40
2018-04-24T06:27:20.006Z,14.40
2018-04-24T06:33:24.404Z,11.90
2018-04-24T06:39:28.761Z,10.87
2018-04-24T06:45:33.109Z,10.10
2018-04-24T06:51:37.488Z,7.30
2018-04-24T06:57:41.824Z,6.83
2018-04-24T07:03:46.169Z,5.97
2018-04-24T07:09:50.508Z,5.80
2018-04-24T07:15:54.849Z,5.20
2018-04-24T07:21:59.191Z,4.97
2018-04-24T07:28:03.541Z,4.40
2018-04-24T07:34:07.908Z,4.13
2018-04-24T07:40:13.017Z,4.70
2018-04-24T07:46:18.134Z,5.10
2018-04-24T07:52:22.476Z,4.80
2018-04-24T07:58:26.802Z,4.30
2018-04-24T08:04:31.922Z,4.23
2018-04-24T08:10:36.255Z,3.90
2018-04-24T08:16:40.589Z,3.93
2018-04-24T08:22:45.003Z,5.90
2018-04-24T08:28:49.267Z,4.63
2018-04-24T08:34:53.611Z,4.40
2018-04-24T08:40:57.989Z,3.80
2018-04-24T08:47:02.329Z,4.67
2018-04-24T08:53:06.651Z,4.00
2018-04-24T08:59:11.817Z,4.33
2018-04-24T09:05:16.173Z,4.33
2018-04-24T09:11:20.520Z,4.50
2018-04-24T09:17:24.857Z,6.37
2018-04-24T09:23:29.986Z,4.40
2018-04-24T09:29:34.325Z,4.40
2018-04-24T09:35:38.661Z,4.30
2018-04-24T09:41:43.096Z,4.83
2018-04-24T09:47:47.451Z,4.10
2018-04-24T09:53:51.805Z,5.00
2018-04-24T09:59:56.148Z,4.00
2018-04-24T10:06:00.499Z,3.37
2018-04-24T10:12:04.857Z,3.90
2018-04-24T10:18:09.987Z,3.83
2018-04-24T10:24:14.326Z,4.40
2018-04-24T10:30:18.659Z,3.87
2018-04-24T10:36:23.613Z,4.03
2018-04-24T10:42:27.947Z,3.80
2018-04-24T10:48:32.301Z,3.60
2018-04-24T10:54:36.685Z,4.63
2018-04-24T11:00:41.093Z,3.87
2018-04-24T11:06:45.457Z,3.30
2018-04-24T11:12:49.733Z,3.27
2018-04-24T11:18:54.078Z,3.00
2018-04-24T11:24:58.439Z,3.30
2018-04-24T11:31:02.793Z,3.40
2018-04-24T11:37:07.133Z,3.10
2018-04-24T11:43:11.489Z,2.73
2018-04-24T11:49:15.839Z,3.00
2018-04-24T11:55:20.943Z,2.73
2018-04-24T12:01:25.284Z,3.37
2018-04-24T12:07:29.629Z,4.17
2018-04-24T12:13:33.997Z,2.77
2018-04-24T12:19:38.353Z,2.60
2018-04-24T12:25:43.479Z,4.37
2018-04-24T12:31:47.868Z,4.40
2018-04-24T12:37:53.044Z,3.30
2018-04-24T12:43:57.384Z,2.30
2018-04-24T12:50:01.716Z,2.33
2018-04-24T12:56:06.103Z,3.33
2018-04-24T13:02:10.437Z,2.80
2018-04-24T13:08:14.783Z,2.50
2018-04-24T13:14:19.148Z,2.80
2018-04-24T13:20:23.589Z,2.33
2018-04-24T13:26:27.923Z,2.13
2018-04-24T13:32:32.269Z,2.13
2018-04-24T13:38:36.608Z,1.90
2018-04-24T13:44:40.949Z,1.70
2018-04-24T13:50:45.290Z,2.00
2018-04-24T13:56:49.620Z,3.67
2018-04-24T14:02:53.954Z,2.20
2018-04-24T14:08:58.324Z,3.93
2018-04-24T14:15:02.688Z,2.50
2018-04-24T14:21:07.794Z,2.30
2018-04-24T14:27:12.120Z,2.50
2018-04-24T14:33:16.479Z,2.57
2018-04-24T14:39:20.881Z,4.10
2018-04-24T14:45:25.216Z,5.00
2018-04-24T14:51:29.581Z,5.97
2018-04-24T14:57:33.923Z,7.70
2018-04-24T15:03:38.274Z,7.07
2018-04-24T15:09:42.616Z,6.50
2018-04-24T15:15:46.964Z,9.10
2018-04-24T15:21:51.310Z,7.33
2018-04-24T15:27:55.671Z,9.53
2018-04-24T15:34:00.007Z,8.67
2018-04-24T15:40:04.348Z,8.97
2018-04-24T15:46:08.703Z,9.13
2018-04-24T15:52:13.821Z,9.10
2018-04-24T15:58:18.170Z,9.97
2018-04-24T16:04:22.516Z,12.40
2018-04-24T16:10:26.895Z,11.87
2018-04-24T16:16:31.269Z,13.73
2018-04-24T16:22:35.631Z,12.50
2018-04-24T16:28:40.006Z,11.50
2018-04-24T16:34:45.129Z,12.57
2018-04-24T16:40:49.475Z,11.53
2018-04-24T16:46:53.851Z,11.27
2018-04-24T16:52:59.031Z,11.60
2018-04-24T16:59:03.402Z,12.13
2018-04-24T17:05:07.769Z,13.70
2018-04-24T17:11:12.122Z,14.37
2018-04-24T17:17:17.252Z,88.20
2018-04-24T17:23:21.599Z,15.60
2018-04-24T17:29:25.962Z,15.17
2018-04-24T17:35:30.313Z,13.70
2018-04-24T17:41:35.426Z,14.53
2018-04-24T17:47:39.777Z,14.40
2018-04-24T17:53:44.133Z,14.57
2018-04-24T17:59:48.504Z,16.20
2018-04-24T18:05:53.608Z,15.33
2018-04-24T18:11:57.960Z,16.10
2018-04-24T18:18:02.307Z,16.37
2018-04-24T18:24:06.673Z,15.70
2018-04-24T18:30:11.793Z,16.93
2018-04-24T18:36:16.922Z,16.10
2018-04-24T18:42:21.260Z,16.80
2018-04-24T18:48:25.620Z,16.37
2018-04-24T18:54:29.982Z,17.50
2018-04-24T19:00:34.329Z,17.57
2018-04-24T19:06:38.716Z,16.97
2018-04-24T19:12:43.083Z,17.97
2018-04-24T19:18:52.797Z,17.80
2018-04-24T19:31:46.356Z,18.50
2018-04-24T19:37:50.823Z,19.37
2018-04-24T19:43:55.202Z,18.43
2018-04-24T19:50:05.790Z,17.93
2018-04-24T19:56:10.934Z,21.33
2018-04-24T20:02:15.387Z,20.03
2018-04-24T20:08:19.859Z,20.67
2018-04-24T20:14:24.289Z,17.83
2018-04-24T20:20:28.701Z,18.73
2018-04-24T20:26:33.947Z,20.27
2018-04-24T20:32:38.417Z,19.13
2018-04-24T20:38:42.950Z,19.20
2018-04-24T20:44:47.320Z,18.67
2018-04-24T20:50:52.527Z,20.40
2018-04-24T20:56:57.088Z,19.43
2018-04-24T21:03:02.252Z,20.20
2018-04-24T21:09:07.551Z,21.60
2018-04-24T21:15:11.959Z,21.97
2018-04-24T21:21:17.088Z,22.30
2018-04-24T21:27:21.546Z,23.27
2018-04-24T21:33:26.071Z,22.30
2018-04-24T21:39:30.559Z,23.63
2018-04-24T21:45:35.584Z,23.40
2018-04-24T21:51:40.034Z,23.30
2018-04-24T21:57:44.411Z,24.17
2018-04-24T22:03:48.801Z,24.00
2018-04-24T22:09:54.791Z,25.20
2018-04-24T22:15:59.331Z,24.80
2018-04-24T22:22:03.687Z,24.23
2018-04-24T22:28:08.176Z,23.33
2018-04-24T22:34:12.750Z,23.33
2018-04-24T22:40:17.222Z,23.13
2018-04-24T22:46:21.590Z,25.63
2018-04-24T22:52:26.047Z,23.83
2018-04-24T22:58:30.524Z,26.63
2018-04-24T23:04:35.008Z,27.20
2018-04-24T23:10:57.976Z,26.83
2018-04-24T23:17:25.997Z,27.57
2018-04-24T23:23:36.378Z,29.00
2018-04-24T23:29:40.729Z,28.77
2018-04-24T23:35:45.953Z,28.80
2018-04-24T23:41:50.316Z,29.93
2018-04-24T23:47:55.660Z,28.93
2018-04-24T23:54:00.067Z,30.50
